Main page
METAR-TAF:

METAR-TAF

Airports :

Capitán FAP Víctor Montes Arias International Airport

Talara, Peru

latitude: 04-34S, longitude: 081-15W, elevation: 85 m

Current weather observation

The report was made 7 hours and 10 minutes ago, at 02:00 UTC
Temperature 18°C
Humidity 88%
Pressure 1012 hPa
Visibility 10 km or more
no clouds below 1500 m and no cumulonimbus

METAR: SPYL 180200Z /////KT CAVOK 18/16 Q1012 RMK PP000

Time: 04:10 (09:10 UTC)

Forecast

The report was made 10 hours and 10 minutes ago, at 23:00 UTC
Forecast valid from 18 at 00 UTC to 18 at 24 UTC
Wind 13 kt from the South/Southeast
Visibility 10 km or more
no clouds below 1500 m and no cumulonimbus
Becoming
from 18 at 16 UTC to 18 at 18 UTC
Wind 20 kt from the South/Southeast

TAF: SPYL 172300Z 1800/1824 16013KT CAVOK TX27/1819Z TN15/1811Z BECMG 1816/1818 16020KT

Weather observations and forecasts of more than 4000 airports (METAR and TAF reports).

The available stations are represented by yellow and red dots on the map.

Hover mouse over dot to see the name of the station.

Then click to see weather observations and forecasts.

To change the map : click on the green buttons with a black cross to zoom in, on the green button with a dash to zoom out, or on the green arrows for adjacent maps.


METAR-TAF: